createdAt,value
2018-08-12T00:00:11.863Z,2.37
2018-08-12T00:02:39.247Z,4.00
2018-08-12T00:05:06.881Z,2.93
2018-08-12T00:07:34.347Z,3.27
2018-08-12T00:10:01.798Z,2.53
2018-08-12T00:12:29.231Z,2.37
2018-08-12T00:14:56.688Z,4.20
2018-08-12T00:17:24.103Z,2.37
2018-08-12T00:19:51.503Z,4.37
2018-08-12T00:22:19.029Z,3.00
2018-08-12T00:24:46.409Z,5.47
2018-08-12T00:27:14.003Z,3.33
2018-08-12T00:29:41.698Z,2.67
2018-08-12T00:32:09.098Z,2.93
2018-08-12T00:34:36.699Z,7.00
2018-08-12T00:37:05.262Z,3.63
2018-08-12T00:39:32.829Z,4.70
2018-08-12T00:42:00.243Z,5.13
2018-08-12T00:44:27.639Z,5.67
2018-08-12T00:46:55.307Z,3.63
2018-08-12T00:49:22.722Z,3.20
2018-08-12T00:51:50.143Z,5.23
2018-08-12T00:54:17.531Z,5.20
2018-08-12T00:56:45.117Z,7.03
2018-08-12T00:59:12.584Z,4.27
2018-08-12T01:03:09.280Z,3.90
2018-08-12T01:05:36.692Z,4.43
2018-08-12T01:08:04.132Z,6.67
2018-08-12T01:10:32.358Z,7.50
2018-08-12T01:12:59.810Z,6.03
2018-08-12T01:15:27.327Z,5.13
2018-08-12T01:17:55.651Z,7.27
2018-08-12T01:20:24.377Z,6.43
2018-08-12T01:22:51.853Z,5.13
2018-08-12T01:25:19.710Z,3.63
2018-08-12T01:27:47.210Z,5.90
2018-08-12T01:30:16.659Z,4.57
2018-08-12T01:32:44.684Z,3.83
2018-08-12T01:35:12.957Z,4.87
2018-08-12T01:37:40.940Z,6.23
2018-08-12T01:40:10.200Z,6.43
2018-08-12T01:42:38.060Z,4.07
2018-08-12T01:45:05.579Z,3.70
2018-08-12T01:47:33.024Z,7.30
2018-08-12T01:50:00.512Z,4.70
2018-08-12T01:52:28.719Z,6.80
2018-08-12T01:54:56.321Z,4.77
2018-08-12T01:57:23.747Z,6.63
2018-08-12T01:59:51.128Z,4.67
2018-08-12T02:02:18.706Z,4.87
2018-08-12T02:04:46.156Z,4.80
2018-08-12T02:07:13.539Z,6.10
2018-08-12T02:09:40.927Z,4.90
2018-08-12T02:12:08.367Z,8.10
2018-08-12T02:14:35.758Z,4.60
2018-08-12T02:17:03.299Z,4.77
2018-08-12T02:19:30.771Z,8.90
2018-08-12T02:21:58.291Z,3.63
2018-08-12T02:24:25.994Z,4.87
2018-08-12T02:26:53.607Z,3.80
2018-08-12T02:29:21.189Z,3.43
2018-08-12T02:31:48.574Z,3.47
2018-08-12T02:34:16.726Z,4.03
2018-08-12T02:36:44.257Z,3.20
2018-08-12T02:39:12.550Z,3.73
2018-08-12T02:41:40.085Z,5.20
2018-08-12T02:44:07.509Z,5.97
2018-08-12T02:46:34.901Z,4.80
2018-08-12T02:49:03.015Z,5.47
2018-08-12T02:51:31.121Z,3.90
2018-08-12T02:53:58.517Z,5.67
2018-08-12T02:56:25.960Z,3.90
2018-08-12T02:58:53.354Z,4.63
2018-08-12T03:01:20.932Z,7.07
2018-08-12T03:03:48.389Z,3.57
2018-08-12T03:06:16.436Z,4.20
2018-08-12T03:08:43.859Z,4.80
2018-08-12T03:11:11.294Z,4.77
2018-08-12T03:13:38.699Z,5.63
2018-08-12T03:16:06.743Z,3.70
2018-08-12T03:18:34.175Z,6.07
2018-08-12T03:21:01.713Z,5.67
2018-08-12T03:23:29.171Z,5.70
2018-08-12T03:25:56.587Z,4.13
2018-08-12T03:28:23.971Z,4.77
2018-08-12T03:30:51.364Z,3.37
2018-08-12T03:33:18.791Z,4.47
2018-08-12T03:35:46.179Z,5.80
2018-08-12T03:38:13.575Z,7.13
2018-08-12T03:40:41.143Z,3.43
2018-08-12T03:43:08.542Z,3.80
2018-08-12T03:45:35.974Z,3.50
2018-08-12T03:48:04.019Z,3.57
2018-08-12T03:50:31.432Z,3.30
2018-08-12T03:52:58.883Z,3.00
2018-08-12T03:55:26.361Z,3.20
2018-08-12T03:57:53.759Z,4.47
2018-08-12T04:00:21.171Z,3.20
2018-08-12T04:02:49.483Z,3.20
2018-08-12T04:05:17.474Z,3.20
2018-08-12T04:07:45.563Z,3.10
2018-08-12T04:10:13.107Z,4.37
2018-08-12T04:12:40.889Z,3.97
2018-08-12T04:15:09.651Z,3.77
2018-08-12T04:17:37.074Z,4.37
2018-08-12T04:20:04.831Z,3.50
2018-08-12T04:22:32.288Z,3.70
2018-08-12T04:24:59.707Z,2.73
2018-08-12T04:27:27.099Z,2.90
2018-08-12T04:29:55.133Z,3.40
2018-08-12T04:32:22.626Z,4.97
2018-08-12T04:34:50.084Z,3.13
2018-08-12T04:37:17.539Z,4.33
2018-08-12T04:39:45.027Z,3.30
2018-08-12T04:42:12.443Z,6.13
2018-08-12T04:44:39.911Z,3.37
2018-08-12T04:47:07.387Z,8.67
2018-08-12T04:49:34.786Z,3.17
2018-08-12T04:52:02.202Z,5.23
2018-08-12T04:54:29.634Z,3.07
2018-08-12T04:56:57.043Z,5.10
2018-08-12T04:59:24.447Z,4.10
2018-08-12T05:01:52.142Z,2.97
2018-08-12T05:04:19.532Z,2.93
2018-08-12T05:06:46.919Z,3.23
2018-08-12T05:09:14.333Z,3.53
2018-08-12T05:11:41.935Z,3.53
2018-08-12T05:14:09.362Z,2.70
2018-08-12T05:16:36.798Z,2.70
2018-08-12T05:19:04.641Z,2.50
2018-08-12T05:21:32.056Z,2.50
2018-08-12T05:24:00.038Z,2.90
2018-08-12T05:26:27.423Z,2.93
2018-08-12T05:28:55.053Z,4.87
2018-08-12T05:31:22.478Z,3.23
2018-08-12T05:33:49.857Z,2.63
2018-08-12T05:36:17.345Z,2.70
2018-08-12T05:38:44.907Z,2.90
2018-08-12T05:41:12.303Z,2.97
2018-08-12T05:43:39.794Z,3.33
2018-08-12T05:46:07.264Z,3.40
2018-08-12T05:48:34.696Z,3.30
2018-08-12T05:51:02.137Z,3.30
2018-08-12T05:53:29.559Z,3.33
2018-08-12T05:55:56.983Z,2.60
2018-08-12T05:58:24.436Z,2.27
2018-08-12T06:00:51.854Z,3.83
2018-08-12T06:03:19.262Z,2.63
2018-08-12T06:05:46.671Z,2.40
2018-08-12T06:08:14.091Z,5.27
2018-08-12T06:10:41.691Z,2.43
2018-08-12T06:13:09.107Z,3.87
2018-08-12T06:15:36.540Z,1.90
2018-08-12T06:18:04.291Z,3.27
2018-08-12T06:20:31.710Z,2.63
2018-08-12T06:22:59.165Z,1.90
2018-08-12T06:25:26.556Z,1.70
2018-08-12T06:27:53.975Z,1.87
2018-08-12T06:30:21.601Z,3.30
2018-08-12T06:32:49.031Z,1.70
2018-08-12T06:35:16.435Z,1.90
2018-08-12T06:37:44.284Z,1.77
2018-08-12T06:40:13.493Z,3.13
2018-08-12T06:42:42.371Z,1.63
2018-08-12T06:45:12.315Z,3.03
2018-08-12T06:47:40.028Z,1.43
2018-08-12T06:50:09.032Z,1.67
2018-08-12T06:52:37.110Z,3.13
2018-08-12T06:55:05.238Z,1.67
2018-08-12T06:57:33.111Z,1.33
2018-08-12T07:00:00.710Z,1.43
2018-08-12T07:02:28.440Z,1.40
2018-08-12T07:04:56.090Z,1.53
2018-08-12T07:07:23.575Z,1.87
2018-08-12T07:09:50.980Z,1.67
2018-08-12T07:12:19.519Z,3.03
2018-08-12T07:14:46.966Z,4.17
2018-08-12T07:17:14.432Z,2.00
2018-08-12T07:19:41.813Z,2.67
2018-08-12T07:22:09.212Z,2.10
2018-08-12T07:24:36.675Z,2.50
2018-08-12T07:27:04.113Z,6.10
2018-08-12T07:29:31.540Z,10.20
2018-08-12T07:31:58.961Z,8.13
2018-08-12T07:34:27.171Z,3.13
2018-08-12T07:36:54.595Z,2.97
2018-08-12T07:39:21.987Z,3.97
2018-08-12T07:41:49.431Z,3.13
2018-08-12T07:44:17.040Z,3.20
2018-08-12T07:46:44.451Z,3.43
2018-08-12T07:49:12.008Z,5.13
2018-08-12T07:51:39.465Z,4.20
2018-08-12T07:54:06.968Z,5.33
2018-08-12T07:56:34.365Z,3.33
2018-08-12T07:59:01.824Z,4.27
2018-08-12T08:01:29.268Z,6.27
2018-08-12T08:03:56.704Z,4.20
2018-08-12T08:06:24.180Z,3.47
2018-08-12T08:08:51.610Z,4.37
2018-08-12T08:11:19.067Z,4.33
2018-08-12T08:13:46.472Z,3.40
2018-08-12T08:16:13.995Z,3.77
2018-08-12T08:18:41.403Z,5.43
2018-08-12T08:21:08.944Z,3.63
2018-08-12T08:23:36.348Z,7.37
2018-08-12T08:26:03.805Z,4.13
2018-08-12T08:28:31.227Z,2.50
2018-08-12T08:30:58.851Z,4.13
2018-08-12T08:33:26.353Z,3.03
2018-08-12T08:35:57.913Z,1.97
2018-08-12T08:38:27.693Z,2.53
2018-08-12T08:40:55.409Z,2.87
2018-08-12T08:43:24.231Z,2.50
2018-08-12T08:45:51.644Z,2.13
2018-08-12T08:48:19.050Z,2.50
2018-08-12T08:50:46.559Z,3.00
2018-08-12T08:53:14.255Z,4.13
2018-08-12T08:55:41.671Z,2.40
2018-08-12T08:58:09.194Z,1.90
2018-08-12T09:00:36.596Z,2.07
2018-08-12T09:03:04.058Z,1.87
2018-08-12T09:05:31.563Z,2.17
2018-08-12T09:07:59.147Z,1.40
2018-08-12T09:10:26.545Z,1.20
2018-08-12T09:12:53.916Z,1.70
2018-08-12T09:15:21.631Z,1.97
2018-08-12T09:17:50.094Z,1.40
2018-08-12T09:20:18.777Z,1.40
2018-08-12T09:22:46.221Z,3.87
2018-08-12T09:25:14.023Z,2.70
2018-08-12T09:27:41.487Z,1.70
2018-08-12T09:30:10.564Z,1.73
2018-08-12T09:32:38.315Z,1.30
2018-08-12T09:35:06.034Z,1.20
2018-08-12T09:37:33.829Z,1.37
2018-08-12T09:40:01.242Z,2.10
2018-08-12T09:42:28.648Z,1.80
2018-08-12T09:44:56.197Z,1.80
2018-08-12T09:47:23.626Z,3.33
2018-08-12T09:49:51.013Z,2.03
2018-08-12T09:52:18.439Z,1.90
2018-08-12T09:54:45.818Z,1.87
2018-08-12T09:57:13.228Z,2.43
2018-08-12T09:59:40.703Z,1.77
2018-08-12T10:02:08.159Z,3.80
2018-08-12T10:04:35.561Z,1.60
2018-08-12T10:07:03.025Z,3.13
2018-08-12T10:09:30.519Z,1.87
2018-08-12T10:11:57.960Z,1.90
2018-08-12T10:14:25.430Z,1.40
2018-08-12T10:16:52.898Z,2.30
2018-08-12T10:19:20.343Z,3.57
2018-08-12T10:21:47.819Z,1.77
2018-08-12T10:24:15.231Z,2.57
2018-08-12T10:26:43.023Z,2.73
2018-08-12T10:29:10.468Z,1.97
2018-08-12T10:31:37.927Z,1.40
2018-08-12T10:34:06.324Z,1.70
2018-08-12T10:36:33.735Z,2.60
2018-08-12T10:39:01.927Z,1.87
2018-08-12T10:41:30.004Z,1.50
2018-08-12T10:43:57.619Z,1.63
2018-08-12T10:46:25.034Z,2.90
2018-08-12T10:48:52.431Z,1.47
2018-08-12T10:51:20.007Z,1.57
2018-08-12T10:53:47.455Z,1.60
2018-08-12T10:56:14.915Z,1.70
2018-08-12T10:58:42.436Z,1.43
2018-08-12T11:01:10.167Z,1.47
2018-08-12T11:03:37.650Z,1.70
2018-08-12T11:06:05.417Z,1.67
2018-08-12T11:08:32.909Z,3.33
2018-08-12T11:11:00.582Z,1.70
2018-08-12T11:13:28.057Z,1.57
2018-08-12T11:15:56.691Z,1.60
2018-08-12T11:18:24.063Z,2.80
2018-08-12T11:20:51.505Z,1.47
2018-08-12T11:23:18.875Z,2.97
2018-08-12T11:25:46.795Z,1.50
2018-08-12T11:28:14.215Z,1.33
2018-08-12T11:30:41.612Z,1.70
2018-08-12T11:33:09.008Z,1.10
2018-08-12T11:35:37.264Z,1.30
2018-08-12T11:38:05.476Z,1.30
2018-08-12T11:40:32.895Z,1.10
2018-08-12T11:43:00.305Z,1.67
2018-08-12T11:45:27.791Z,1.10
2018-08-12T11:47:55.263Z,1.27
2018-08-12T11:50:23.313Z,1.07
2018-08-12T11:52:50.718Z,0.90
2018-08-12T11:55:18.585Z,1.97
2018-08-12T11:57:46.262Z,1.03
2018-08-12T12:00:16.207Z,1.20
2018-08-12T12:02:44.617Z,0.90
2018-08-12T12:05:13.334Z,0.90
2018-08-12T12:07:41.103Z,0.90
2018-08-12T12:10:10.749Z,1.13
2018-08-12T12:12:38.498Z,0.90
2018-08-12T12:15:06.267Z,1.00
2018-08-12T12:17:33.975Z,0.80
2018-08-12T12:20:01.404Z,1.00
2018-08-12T12:22:28.887Z,0.80
2018-08-12T12:24:56.340Z,1.00
2018-08-12T12:27:23.774Z,0.80
2018-08-12T12:29:51.195Z,0.60
2018-08-12T12:32:18.798Z,0.80
2018-08-12T12:34:46.279Z,0.90
2018-08-12T12:37:13.685Z,0.90
2018-08-12T12:39:41.078Z,2.43
2018-08-12T12:42:08.507Z,0.77
2018-08-12T12:44:35.920Z,0.80
2018-08-12T12:47:03.387Z,0.90
2018-08-12T12:49:31.021Z,1.00
2018-08-12T12:51:58.426Z,1.00
2018-08-12T12:54:25.831Z,3.03
2018-08-12T12:56:53.238Z,1.37
2018-08-12T12:59:20.654Z,1.17
2018-08-12T13:01:48.186Z,3.17
2018-08-12T13:04:15.638Z,1.97
2018-08-12T13:06:43.025Z,2.30
2018-08-12T13:09:12.679Z,2.70
2018-08-12T13:11:40.103Z,1.80
2018-08-12T13:14:07.827Z,1.90
2018-08-12T13:16:35.422Z,2.13
2018-08-12T13:19:03.187Z,1.30
2018-08-12T13:21:30.689Z,2.53
2018-08-12T13:23:58.089Z,2.10
2018-08-12T13:26:25.555Z,1.40
2018-08-12T13:28:53.010Z,1.60
2018-08-12T13:31:20.443Z,1.40
2018-08-12T13:33:47.899Z,1.30
2018-08-12T13:36:15.659Z,2.17
2018-08-12T13:38:43.126Z,1.43
2018-08-12T13:41:10.591Z,1.67
2018-08-12T13:43:38.133Z,1.10
2018-08-12T13:46:06.379Z,1.23
2018-08-12T13:48:33.862Z,1.30
2018-08-12T13:51:01.289Z,1.20
2018-08-12T13:53:28.691Z,1.10
2018-08-12T13:55:56.264Z,5.03
2018-08-12T13:58:23.717Z,1.20
2018-08-12T14:00:51.152Z,1.57
2018-08-12T14:03:18.645Z,4.67
2018-08-12T14:05:46.040Z,1.70
2018-08-12T14:08:13.423Z,1.57
2018-08-12T14:10:40.879Z,3.33
2018-08-12T14:13:08.304Z,1.93
2018-08-12T14:15:35.898Z,2.07
2018-08-12T14:18:04.044Z,2.43
2018-08-12T14:20:31.458Z,2.73
2018-08-12T14:22:58.883Z,1.10
2018-08-12T14:25:26.292Z,1.10
2018-08-12T14:27:53.796Z,1.30
2018-08-12T14:30:22.324Z,1.13
2018-08-12T14:32:50.267Z,3.17
2018-08-12T14:35:17.788Z,1.50
2018-08-12T14:37:45.484Z,2.10
2018-08-12T14:40:13.427Z,2.93
2018-08-12T14:42:41.008Z,1.53
2018-08-12T14:45:09.743Z,1.63
2018-08-12T14:47:37.610Z,2.90
2018-08-12T14:50:06.140Z,1.40
2018-08-12T14:52:33.528Z,1.47
2018-08-12T14:55:01.075Z,1.60
2018-08-12T14:57:29.415Z,3.57
2018-08-12T14:59:56.964Z,1.37
2018-08-12T15:02:24.391Z,1.60
2018-08-12T15:04:51.775Z,1.60
2018-08-12T15:07:19.250Z,2.70
2018-08-12T15:09:46.742Z,3.80
2018-08-12T15:12:14.150Z,1.70
2018-08-12T15:14:41.577Z,1.60
2018-08-12T15:17:09.078Z,1.50
2018-08-12T15:19:36.535Z,2.40
2018-08-12T15:22:03.990Z,1.47
2018-08-12T15:24:31.463Z,2.53
2018-08-12T15:26:59.477Z,1.87
2018-08-12T15:29:26.897Z,2.63
2018-08-12T15:31:54.466Z,3.70
2018-08-12T15:34:21.856Z,3.20
2018-08-12T15:36:49.235Z,1.60
2018-08-12T15:39:16.890Z,1.80
2018-08-12T15:41:44.263Z,3.80
2018-08-12T15:44:11.825Z,1.63
2018-08-12T15:46:39.878Z,2.10
2018-08-12T15:49:07.562Z,1.87
2018-08-12T15:51:35.007Z,1.90
2018-08-12T15:54:02.453Z,1.70
2018-08-12T15:56:29.927Z,2.03
2018-08-12T15:58:57.341Z,3.30
2018-08-12T16:01:24.799Z,4.47
2018-08-12T16:03:52.212Z,1.90
2018-08-12T16:06:19.652Z,2.63
2018-08-12T16:08:47.258Z,2.53
2018-08-12T16:11:14.735Z,2.63
2018-08-12T16:13:42.123Z,2.20
2018-08-12T16:16:09.702Z,3.63
2018-08-12T16:18:37.125Z,3.03
2018-08-12T16:21:04.639Z,2.43
2018-08-12T16:23:32.076Z,1.93
2018-08-12T16:25:59.616Z,2.07
2018-08-12T16:28:27.252Z,4.67
2018-08-12T16:30:54.763Z,2.23
2018-08-12T16:33:22.240Z,2.77
2018-08-12T16:35:49.671Z,3.47
2018-08-12T16:38:17.190Z,5.07
2018-08-12T16:40:44.575Z,3.73
2018-08-12T16:43:12.087Z,3.43
2018-08-12T16:45:39.506Z,4.07
2018-08-12T16:48:06.891Z,7.20
2018-08-12T16:50:34.478Z,6.83
2018-08-12T16:53:01.903Z,6.47
2018-08-12T16:55:29.319Z,7.53
2018-08-12T16:57:56.771Z,7.53
2018-08-12T17:00:24.897Z,6.87
2018-08-12T17:02:52.350Z,5.17
2018-08-12T17:05:20.423Z,6.90
2018-08-12T17:07:48.010Z,5.87
2018-08-12T17:10:16.401Z,5.60
2018-08-12T17:12:44.049Z,6.83
2018-08-12T17:15:13.091Z,5.37
2018-08-12T17:17:40.715Z,5.13
2018-08-12T17:20:09.488Z,7.17
2018-08-12T17:22:36.945Z,13.53
2018-08-12T17:25:04.844Z,9.17
2018-08-12T17:27:32.245Z,9.87
2018-08-12T17:29:59.684Z,7.03
2018-08-12T17:32:27.131Z,7.57
2018-08-12T17:34:54.756Z,8.80
2018-08-12T17:37:22.944Z,7.17
2018-08-12T17:39:50.684Z,10.07
2018-08-12T17:42:18.179Z,9.83
2018-08-12T17:44:45.903Z,8.43
2018-08-12T17:47:13.387Z,6.93
2018-08-12T17:49:41.046Z,9.10
2018-08-12T17:52:08.496Z,8.23
2018-08-12T17:54:35.902Z,8.53
2018-08-12T17:57:03.288Z,6.30
2018-08-12T17:59:30.899Z,9.83
2018-08-12T18:01:58.303Z,8.60
2018-08-12T18:04:25.791Z,8.00
2018-08-12T18:06:53.459Z,6.63
2018-08-12T18:09:20.898Z,6.37
2018-08-12T18:11:48.336Z,8.23
2018-08-12T18:14:15.839Z,10.60
2018-08-12T18:16:43.267Z,7.07
2018-08-12T18:19:10.724Z,6.97
2018-08-12T18:21:38.223Z,6.00
2018-08-12T18:24:05.641Z,6.73
2018-08-12T18:26:33.025Z,6.67
2018-08-12T18:29:00.431Z,5.07
2018-08-12T18:31:27.816Z,8.40
2018-08-12T18:33:55.215Z,8.10
2018-08-12T18:36:22.644Z,5.43
2018-08-12T18:38:50.127Z,7.00
2018-08-12T18:41:17.539Z,11.30
2018-08-12T18:43:45.073Z,5.43
2018-08-12T18:46:12.488Z,6.37
2018-08-12T18:48:39.920Z,6.17
2018-08-12T18:51:07.423Z,4.57
2018-08-12T18:53:34.815Z,5.33
2018-08-12T18:56:02.290Z,7.03
2018-08-12T18:58:29.759Z,4.50
2018-08-12T19:00:57.126Z,4.60
2018-08-12T19:03:25.152Z,7.43
2018-08-12T19:05:52.950Z,4.30
2018-08-12T19:08:20.367Z,8.27
2018-08-12T19:10:47.759Z,5.30
2018-08-12T19:13:15.211Z,4.07
2018-08-12T19:15:42.672Z,10.57
2018-08-12T19:18:10.111Z,3.53
2018-08-12T19:20:37.848Z,5.83
2018-08-12T19:23:05.435Z,4.73
2018-08-12T19:25:32.847Z,4.33
2018-08-12T19:28:01.249Z,7.30
2018-08-12T19:30:28.661Z,5.00
2018-08-12T19:32:56.083Z,4.03
2018-08-12T19:35:23.699Z,7.30
2018-08-12T19:37:51.620Z,6.17
2018-08-12T19:40:20.216Z,4.40
2018-08-12T19:42:48.145Z,5.13
2018-08-12T19:45:15.609Z,4.53
2018-08-12T19:47:43.065Z,3.40
2018-08-12T19:50:10.865Z,3.20
2018-08-12T19:52:38.299Z,4.17
2018-08-12T19:55:06.278Z,4.20
2018-08-12T19:57:33.735Z,3.57
2018-08-12T20:00:01.199Z,4.27
2018-08-12T20:02:28.738Z,5.23
2018-08-12T20:04:56.270Z,4.20
2018-08-12T20:07:23.720Z,3.70
2018-08-12T20:09:51.111Z,7.70
2018-08-12T20:12:18.728Z,3.80
2018-08-12T20:14:46.032Z,3.90
2018-08-12T20:17:14.114Z,3.80
2018-08-12T20:19:41.536Z,3.40
2018-08-12T20:22:11.439Z,7.63
2018-08-12T20:24:39.143Z,3.57
2018-08-12T20:27:06.768Z,3.37
2018-08-12T20:29:34.148Z,4.00
2018-08-12T20:32:01.531Z,3.20
2018-08-12T20:34:29.115Z,3.63
2018-08-12T20:36:56.502Z,4.80
2018-08-12T20:39:23.894Z,2.67
2018-08-12T20:41:52.272Z,4.40
2018-08-12T20:44:19.675Z,3.27
2018-08-12T20:46:47.074Z,3.50
2018-08-12T20:49:14.507Z,3.20
2018-08-12T20:51:41.923Z,4.50
2018-08-12T20:54:09.432Z,2.80
2018-08-12T20:56:36.899Z,5.53
2018-08-12T20:59:04.274Z,3.40
2018-08-12T21:01:31.651Z,3.63
2018-08-12T21:03:59.507Z,2.97
2018-08-12T21:06:27.627Z,3.00
2018-08-12T21:08:55.019Z,3.47
2018-08-12T21:11:23.391Z,5.20
2018-08-12T21:13:50.775Z,3.67
2018-08-12T21:16:18.251Z,3.10
2018-08-12T21:18:45.664Z,2.90
2018-08-12T21:21:13.119Z,4.77
2018-08-12T21:23:40.554Z,5.17
2018-08-12T21:26:08.126Z,3.20
2018-08-12T21:28:36.257Z,3.57
2018-08-12T21:31:03.713Z,3.97
2018-08-12T21:33:31.713Z,2.93
2018-08-12T21:35:59.767Z,2.60
2018-08-12T21:38:27.241Z,6.13
2018-08-12T21:40:54.759Z,2.97
2018-08-12T21:43:22.179Z,3.67
2018-08-12T21:45:49.593Z,3.03
2018-08-12T21:48:17.015Z,2.90
2018-08-12T21:50:44.447Z,4.43
2018-08-12T21:53:12.543Z,7.13
2018-08-12T21:55:40.064Z,3.20
2018-08-12T21:58:07.520Z,3.27
2018-08-12T22:00:34.919Z,3.13
2018-08-12T22:03:02.370Z,2.77
2018-08-12T22:05:29.867Z,4.37
2018-08-12T22:07:57.391Z,3.03
2018-08-12T22:10:24.816Z,4.87
2018-08-12T22:12:52.250Z,3.33
2018-08-12T22:15:20.419Z,2.60
2018-08-12T22:17:47.835Z,2.60
2018-08-12T22:20:15.327Z,5.07
2018-08-12T22:22:43.971Z,2.53
2018-08-12T22:25:11.497Z,2.53
2018-08-12T22:27:38.887Z,2.63
2018-08-12T22:30:07.931Z,2.50
2018-08-12T22:32:35.401Z,2.60
2018-08-12T22:35:02.787Z,2.70
2018-08-12T22:37:30.283Z,3.10
2018-08-12T22:39:57.778Z,2.27
2018-08-12T22:42:25.292Z,2.37
2018-08-12T22:44:52.694Z,2.47
2018-08-12T22:47:20.144Z,2.83
2018-08-12T22:49:48.202Z,1.87
2018-08-12T22:52:16.272Z,3.30
2018-08-12T22:54:43.743Z,5.13
2018-08-12T22:57:11.258Z,2.70
2018-08-12T22:59:38.716Z,3.27
2018-08-12T23:02:06.710Z,2.57
2018-08-12T23:04:35.398Z,2.03
2018-08-12T23:07:03.766Z,3.03
2018-08-12T23:09:31.259Z,2.37
2018-08-12T23:11:58.683Z,2.93
2018-08-12T23:14:26.055Z,2.10
2018-08-12T23:16:54.783Z,2.27
2018-08-12T23:19:22.169Z,2.47
2018-08-12T23:21:49.597Z,2.13
2018-08-12T23:24:17.222Z,2.40
2018-08-12T23:26:44.595Z,2.13
2018-08-12T23:29:12.107Z,1.90
2018-08-12T23:31:39.525Z,6.20
2018-08-12T23:34:06.931Z,3.77
2018-08-12T23:36:34.476Z,2.20
2018-08-12T23:39:01.895Z,1.83
2018-08-12T23:41:29.338Z,2.30
2018-08-12T23:43:56.772Z,2.70
2018-08-12T23:46:24.334Z,2.33
2018-08-12T23:48:51.754Z,2.40
2018-08-12T23:51:19.147Z,2.50
2018-08-12T23:53:46.549Z,2.77
2018-08-12T23:56:14.216Z,2.37
2018-08-12T23:58:41.609Z,1.83
